sensor_id;sensor_type;location;lat;lon;timestamp;pressure;altitude;pressure_sealevel;temperature;humidity
10476;BME280;26166;48.264;11.436;2023-12-29T00:02:02;96371.94;;;9.95;57.34
10476;BME280;26166;48.264;11.436;2023-12-29T00:05:02;96371.13;;;9.95;57.25
10476;BME280;26166;48.264;11.436;2023-12-29T00:08:03;96360.63;;;9.95;56.91
10476;BME280;26166;48.264;11.436;2023-12-29T00:11:03;96355.38;;;9.95;57.11
10476;BME280;26166;48.264;11.436;2023-12-29T00:14:04;96355.53;;;9.93;57.25
10476;BME280;26166;48.264;11.436;2023-12-29T00:17:05;96356.19;;;9.95;57.05
10476;BME280;26166;48.264;11.436;2023-12-29T00:20:06;96350.94;;;9.95;57.08
10476;BME280;26166;48.264;11.436;2023-12-29T00:23:07;96350.28;;;9.93;57.36
10476;BME280;26166;48.264;11.436;2023-12-29T00:26:08;96350.28;;;9.93;57.14
10476;BME280;26166;48.264;11.436;2023-12-29T00:29:08;96346.84;;;9.93;56.97
10476;BME280;26166;48.264;11.436;2023-12-29T00:32:08;96343.56;;;9.91;57.47
10476;BME280;26166;48.264;11.436;2023-12-29T00:35:08;96340.28;;;9.89;57.22
10476;BME280;26166;48.264;11.436;2023-12-29T00:38:09;96342.59;;;9.92;57.50
10476;BME280;26166;48.264;11.436;2023-12-29T00:41:09;96337.34;;;9.92;57.30
10476;BME280;26166;48.264;11.436;2023-12-29T00:44:09;96328.81;;;9.90;57.16
10476;BME280;26166;48.264;11.436;2023-12-29T00:47:09;96328.81;;;9.90;57.45
10476;BME280;26166;48.264;11.436;2023-12-29T00:50:09;96332.41;;;9.89;57.59
10476;BME280;26166;48.264;11.436;2023-12-29T00:53:09;96332.09;;;9.92;57.40
10476;BME280;26166;48.264;11.436;2023-12-29T00:56:10;96330.28;;;9.92;57.67
10476;BME280;26166;48.264;11.436;2023-12-29T00:59:11;96332.09;;;9.92;57.27
10476;BME280;26166;48.264;11.436;2023-12-29T01:02:11;96326.84;;;9.92;57.47
10476;BME280;26166;48.264;11.436;2023-12-29T01:05:15;96327.16;;;9.89;57.83
10476;BME280;26166;48.264;11.436;2023-12-29T01:08:16;96328.81;;;9.90;57.44
10476;BME280;26166;48.264;11.436;2023-12-29T01:11:16;96329.78;;;9.89;57.90
10476;BME280;26166;48.264;11.436;2023-12-29T01:14:16;96336.03;;;9.88;57.82
10476;BME280;26166;48.264;11.436;2023-12-29T01:17:16;96330.59;;;9.89;57.50
10476;BME280;26166;48.264;11.436;2023-12-29T01:20:17;96338.66;;;9.88;57.53
10476;BME280;26166;48.264;11.436;2023-12-29T01:23:17;96336.16;;;9.86;57.64
10476;BME280;26166;48.264;11.436;2023-12-29T01:26:18;96339.13;;;9.83;58.22
10476;BME280;26166;48.264;11.436;2023-12-29T01:29:18;96339.28;;;9.81;57.87
10476;BME280;26166;48.264;11.436;2023-12-29T01:32:19;96332.22;;;9.82;57.74
10476;BME280;26166;48.264;11.436;2023-12-29T01:35:19;96335.81;;;9.81;57.88
10476;BME280;26166;48.264;11.436;2023-12-29T01:38:19;96333.03;;;9.82;58.08
10476;BME280;26166;48.264;11.436;2023-12-29T01:41:20;96331.25;;;9.83;58.22
10476;BME280;26166;48.264;11.436;2023-12-29T01:44:20;96336.66;;;9.81;57.86
10476;BME280;26166;48.264;11.436;2023-12-29T01:47:21;96338.28;;;9.82;58.13
10476;BME280;26166;48.264;11.436;2023-12-29T01:50:22;96337.31;;;9.83;57.72
10476;BME280;26166;48.264;11.436;2023-12-29T01:53:23;96334.69;;;9.83;57.87
10476;BME280;26166;48.264;11.436;2023-12-29T01:56:23;96334.34;;;9.86;57.90
10476;BME280;26166;48.264;11.436;2023-12-29T01:59:25;96322.22;;;9.85;57.68
10476;BME280;26166;48.264;11.436;2023-12-29T02:02:25;96319.78;;;9.84;57.81
10476;BME280;26166;48.264;11.436;2023-12-29T02:05:25;96311.22;;;9.82;58.10
10476;BME280;26166;48.264;11.436;2023-12-29T02:08:26;96312.03;;;9.82;57.90
10476;BME280;26166;48.264;11.436;2023-12-29T02:11:26;96314.66;;;9.82;57.96
10476;BME280;26166;48.264;11.436;2023-12-29T02:14:27;96322.53;;;9.82;58.04
10476;BME280;26166;48.264;11.436;2023-12-29T02:17:27;96325.84;;;9.84;57.71
10476;BME280;26166;48.264;11.436;2023-12-29T02:20:31;96313.72;;;9.83;57.97
10476;BME280;26166;48.264;11.436;2023-12-29T02:23:31;96309.28;;;9.84;58.00
10476;BME280;26166;48.264;11.436;2023-12-29T02:26:31;96300.59;;;9.83;57.88
10476;BME280;26166;48.264;11.436;2023-12-29T02:29:34;96289.44;;;9.81;57.78
10476;BME280;26166;48.264;11.436;2023-12-29T02:32:46;96289.59;;;9.80;57.91
10476;BME280;26166;48.264;11.436;2023-12-29T02:35:48;96285.81;;;9.82;57.71
10476;BME280;26166;48.264;11.436;2023-12-29T02:38:49;96283.88;;;9.84;57.53
10476;BME280;26166;48.264;11.436;2023-12-29T02:41:49;96285.81;;;9.82;57.10
10476;BME280;26166;48.264;11.436;2023-12-29T02:44:49;96288.44;;;9.82;57.48
10476;BME280;26166;48.264;11.436;2023-12-29T02:47:49;96280.56;;;9.82;57.33
10476;BME280;26166;48.264;11.436;2023-12-29T02:50:50;96275.31;;;9.82;56.96
10476;BME280;26166;48.264;11.436;2023-12-29T02:53:50;96267.44;;;9.82;57.37
10476;BME280;26166;48.264;11.436;2023-12-29T02:56:50;96270.91;;;9.83;57.05
10476;BME280;26166;48.264;11.436;2023-12-29T02:59:50;96263.53;;;9.86;56.97
10476;BME280;26166;48.264;11.436;2023-12-29T03:02:50;96277.63;;;9.85;56.79
10476;BME280;26166;48.264;11.436;2023-12-29T03:05:51;96269.75;;;9.85;56.98
10476;BME280;26166;48.264;11.436;2023-12-29T03:08:51;96270.56;;;9.86;56.66
10476;BME280;26166;48.264;11.436;2023-12-29T03:11:51;96264.34;;;9.87;56.67
10476;BME280;26166;48.264;11.436;2023-12-29T03:14:51;96261.72;;;9.87;56.54
10476;BME280;26166;48.264;11.436;2023-12-29T03:17:51;96255.66;;;9.86;56.55
10476;BME280;26166;48.264;11.436;2023-12-29T03:20:52;96255.00;;;9.84;56.82
10476;BME280;26166;48.264;11.436;2023-12-29T03:23:52;96257.47;;;9.86;56.79
10476;BME280;26166;48.264;11.436;2023-12-29T03:26:52;96260.59;;;9.90;56.60
10476;BME280;26166;48.264;11.436;2023-12-29T03:29:52;96251.72;;;9.91;56.12
10476;BME280;26166;48.264;11.436;2023-12-29T03:32:52;96239.75;;;9.88;56.55
10476;BME280;26166;48.264;11.436;2023-12-29T03:35:53;96252.22;;;9.86;56.34
10476;BME280;26166;48.264;11.436;2023-12-29T03:38:53;96258.44;;;9.85;56.29
10476;BME280;26166;48.264;11.436;2023-12-29T03:41:53;96251.22;;;9.87;56.54
10476;BME280;26166;48.264;11.436;2023-12-29T03:44:53;96252.38;;;9.84;56.24
10476;BME280;26166;48.264;11.436;2023-12-29T03:47:53;96250.75;;;9.83;56.35
10476;BME280;26166;48.264;11.436;2023-12-29T03:50:53;96252.88;;;9.80;56.30
10476;BME280;26166;48.264;11.436;2023-12-29T03:53:54;96262.53;;;9.79;56.43
10476;BME280;26166;48.264;11.436;2023-12-29T03:56:54;96256.31;;;9.80;56.61
10476;BME280;26166;48.264;11.436;2023-12-29T03:59:54;96244.81;;;9.81;56.26
10476;BME280;26166;48.264;11.436;2023-12-29T04:02:54;96238.94;;;9.79;56.46
10476;BME280;26166;48.264;11.436;2023-12-29T04:05:54;96244.19;;;9.79;56.16
10476;BME280;26166;48.264;11.436;2023-12-29T04:08:55;96237.31;;;9.78;56.49
10476;BME280;26166;48.264;11.436;2023-12-29T04:11:55;96242.53;;;9.78;56.61
10476;BME280;26166;48.264;11.436;2023-12-29T04:14:55;96236.97;;;9.81;56.47
10476;BME280;26166;48.264;11.436;2023-12-29T04:17:55;96236.97;;;9.81;56.39
10476;BME280;26166;48.264;11.436;2023-12-29T04:20:56;96230.56;;;9.84;56.30
10476;BME280;26166;48.264;11.436;2023-12-29T04:23:56;96233.34;;;9.82;56.28
10476;BME280;26166;48.264;11.436;2023-12-29T04:26:56;96230.56;;;9.76;56.08
10476;BME280;26166;48.264;11.436;2023-12-29T04:29:56;96237.63;;;9.75;56.20
10476;BME280;26166;48.264;11.436;2023-12-29T04:32:57;96229.06;;;9.73;56.55
10476;BME280;26166;48.264;11.436;2023-12-29T04:35:57;96223.81;;;9.73;56.47
10476;BME280;26166;48.264;11.436;2023-12-29T04:38:57;96224.97;;;9.71;56.11
10476;BME280;26166;48.264;11.436;2023-12-29T04:41:57;96228.59;;;9.70;56.06
10476;BME280;26166;48.264;11.436;2023-12-29T04:44:57;96229.41;;;9.70;56.00
10476;BME280;26166;48.264;11.436;2023-12-29T04:47:58;96232.03;;;9.70;55.98
10476;BME280;26166;48.264;11.436;2023-12-29T04:50:58;96225.81;;;9.71;56.03
10476;BME280;26166;48.264;11.436;2023-12-29T04:53:58;96215.13;;;9.73;55.99
10476;BME280;26166;48.264;11.436;2023-12-29T04:56:58;96221.88;;;9.75;55.81
10476;BME280;26166;48.264;11.436;2023-12-29T04:59:58;96219.41;;;9.74;55.78
10476;BME280;26166;48.264;11.436;2023-12-29T05:02:59;96223.81;;;9.73;55.58
10476;BME280;26166;48.264;11.436;2023-12-29T05:05:59;96211.53;;;9.74;55.62
10476;BME280;26166;48.264;11.436;2023-12-29T05:08:59;96213.34;;;9.73;55.77
10476;BME280;26166;48.264;11.436;2023-12-29T05:11:59;96211.53;;;9.74;55.39
10476;BME280;26166;48.264;11.436;2023-12-29T05:15:02;96210.38;;;9.76;55.69
10476;BME280;26166;48.264;11.436;2023-12-29T05:18:03;96214.00;;;9.75;55.23
10476;BME280;26166;48.264;11.436;2023-12-29T05:21:03;96215.47;;;9.78;55.50
10476;BME280;26166;48.264;11.436;2023-12-29T05:24:03;96222.38;;;9.79;55.06
10476;BME280;26166;48.264;11.436;2023-12-29T05:27:05;96224.00;;;9.80;54.81
10476;BME280;26166;48.264;11.436;2023-12-29T05:30:05;96225.81;;;9.79;55.17
10476;BME280;26166;48.264;11.436;2023-12-29T05:33:06;96228.44;;;9.79;54.76
10476;BME280;26166;48.264;11.436;2023-12-29T05:36:07;96231.72;;;9.81;55.13
10476;BME280;26166;48.264;11.436;2023-12-29T05:39:08;96236.31;;;9.79;54.86
10476;BME280;26166;48.264;11.436;2023-12-29T05:42:08;96238.94;;;9.79;55.00
10476;BME280;26166;48.264;11.436;2023-12-29T05:45:08;96235.31;;;9.80;54.85
10476;BME280;26166;48.264;11.436;2023-12-29T05:48:09;96240.56;;;9.80;55.15
10476;BME280;26166;48.264;11.436;2023-12-29T05:51:10;96240.56;;;9.80;54.90
10476;BME280;26166;48.264;11.436;2023-12-29T05:54:10;96236.97;;;9.81;54.83
10476;BME280;26166;48.264;11.436;2023-12-29T05:57:10;96239.56;;;9.81;54.76
10476;BME280;26166;48.264;11.436;2023-12-29T06:00:11;96241.22;;;9.82;54.99
10476;BME280;26166;48.264;11.436;2023-12-29T06:06:17;96242.06;;;9.83;54.62
10476;BME280;26166;48.264;11.436;2023-12-29T06:09:18;96243.03;;;9.82;55.04
10476;BME280;26166;48.264;11.436;2023-12-29T06:12:19;96245.50;;;9.83;54.92
10476;BME280;26166;48.264;11.436;2023-12-29T06:15:19;96240.56;;;9.80;54.79
10476;BME280;26166;48.264;11.436;2023-12-29T06:18:20;96243.84;;;9.82;54.86
10476;BME280;26166;48.264;11.436;2023-12-29T06:21:20;96242.19;;;9.81;54.66
10476;BME280;26166;48.264;11.436;2023-12-29T06:24:20;96247.63;;;9.80;54.94
10476;BME280;26166;48.264;11.436;2023-12-29T06:27:21;96251.38;;;9.77;55.05
10476;BME280;26166;48.264;11.436;2023-12-29T06:30:21;96258.28;;;9.78;55.13
10476;BME280;26166;48.264;11.436;2023-12-29T06:33:21;96257.44;;;9.78;54.83
10476;BME280;26166;48.264;11.436;2023-12-29T06:36:22;96251.06;;;9.80;54.90
10476;BME280;26166;48.264;11.436;2023-12-29T06:39:22;96257.13;;;9.81;54.96
10476;BME280;26166;48.264;11.436;2023-12-29T06:42:23;96252.06;;;9.79;55.31
10476;BME280;26166;48.264;11.436;2023-12-29T06:45:23;96251.38;;;9.77;55.45
10476;BME280;26166;48.264;11.436;2023-12-29T06:48:23;96254.81;;;9.78;55.33
10476;BME280;26166;48.264;11.436;2023-12-29T06:51:24;96259.09;;;9.79;55.55
10476;BME280;26166;48.264;11.436;2023-12-29T06:54:24;96258.28;;;9.78;55.33
10476;BME280;26166;48.264;11.436;2023-12-29T06:57:24;96263.53;;;9.78;55.41
10476;BME280;26166;48.264;11.436;2023-12-29T07:00:24;96260.06;;;9.78;55.53
10476;BME280;26166;48.264;11.436;2023-12-29T07:03:24;96274.03;;;9.78;55.41
10476;BME280;26166;48.264;11.436;2023-12-29T07:06:25;96263.53;;;9.78;55.69
10476;BME280;26166;48.264;11.436;2023-12-29T07:09:25;96272.03;;;9.80;55.77
10476;BME280;26166;48.264;11.436;2023-12-29T07:12:25;96275.66;;;9.79;55.68
10476;BME280;26166;48.264;11.436;2023-12-29T07:15:25;96279.91;;;9.80;55.87
10476;BME280;26166;48.264;11.436;2023-12-29T07:18:25;96284.19;;;9.81;56.16
10476;BME280;26166;48.264;11.436;2023-12-29T07:21:26;96280.56;;;9.82;56.34
10476;BME280;26166;48.264;11.436;2023-12-29T07:24:26;96268.13;;;9.84;56.66
10476;BME280;26166;48.264;11.436;2023-12-29T07:27:26;96272.22;;;9.87;57.01
10476;BME280;26166;48.264;11.436;2023-12-29T07:30:26;96271.06;;;9.90;57.06
10476;BME280;26166;48.264;11.436;2023-12-29T07:33:29;96274.53;;;9.90;56.89
10476;BME280;26166;48.264;11.436;2023-12-29T07:36:29;96274.69;;;9.89;57.24
10476;BME280;26166;48.264;11.436;2023-12-29T07:39:30;96274.81;;;9.87;57.81
10476;BME280;26166;48.264;11.436;2023-12-29T07:42:30;96275.00;;;9.85;58.15
10476;BME280;26166;48.264;11.436;2023-12-29T07:45:32;96261.25;;;9.83;58.50
10476;BME280;26166;48.264;11.436;2023-12-29T07:48:32;96275.00;;;9.85;58.71
10476;BME280;26166;48.264;11.436;2023-12-29T07:51:32;96267.31;;;9.84;58.70
10476;BME280;26166;48.264;11.436;2023-12-29T07:54:33;96275.19;;;9.84;58.80
10476;BME280;26166;48.264;11.436;2023-12-29T07:57:33;96276.63;;;9.86;58.69
10476;BME280;26166;48.264;11.436;2023-12-29T08:00:33;96278.44;;;9.86;59.00
10476;BME280;26166;48.264;11.436;2023-12-29T08:03:33;96276.81;;;9.85;59.12
10476;BME280;26166;48.264;11.436;2023-12-29T08:06:33;96284.69;;;9.85;59.46
10476;BME280;26166;48.264;11.436;2023-12-29T08:09:34;96288.94;;;9.86;59.33
10476;BME280;26166;48.264;11.436;2023-12-29T08:12:34;96288.94;;;9.86;59.56
10476;BME280;26166;48.264;11.436;2023-12-29T08:15:35;96296.81;;;9.86;59.39
10476;BME280;26166;48.264;11.436;2023-12-29T08:18:37;96292.38;;;9.86;59.66
10476;BME280;26166;48.264;11.436;2023-12-29T08:21:37;96287.13;;;9.86;59.55
10476;BME280;26166;48.264;11.436;2023-12-29T08:24:39;96295.81;;;9.87;59.82
10476;BME280;26166;48.264;11.436;2023-12-29T08:27:41;96305.50;;;9.86;59.75
10476;BME280;26166;48.264;11.436;2023-12-29T08:30:41;96308.94;;;9.87;59.72
10476;BME280;26166;48.264;11.436;2023-12-29T08:33:41;96311.72;;;9.85;60.21
10476;BME280;26166;48.264;11.436;2023-12-29T08:36:41;96312.72;;;9.84;59.99
10476;BME280;26166;48.264;11.436;2023-12-29T08:39:41;96306.31;;;9.87;60.16
10476;BME280;26166;48.264;11.436;2023-12-29T08:42:43;96296.00;;;9.85;59.86
10476;BME280;26166;48.264;11.436;2023-12-29T08:45:43;96303.88;;;9.85;59.84
10476;BME280;26166;48.264;11.436;2023-12-29T08:48:43;96297.97;;;9.83;59.92
10476;BME280;26166;48.264;11.436;2023-12-29T08:51:43;96289.09;;;9.84;59.81
10476;BME280;26166;48.264;11.436;2023-12-29T08:54:44;96294.34;;;9.84;60.16
10476;BME280;26166;48.264;11.436;2023-12-29T08:57:44;96287.47;;;9.83;60.13
10476;BME280;26166;48.264;11.436;2023-12-29T09:00:44;96291.72;;;9.84;59.79
10476;BME280;26166;48.264;11.436;2023-12-29T09:03:45;96292.56;;;9.85;59.68
10476;BME280;26166;48.264;11.436;2023-12-29T09:06:45;96293.38;;;9.85;60.05
10476;BME280;26166;48.264;11.436;2023-12-29T09:09:45;96301.25;;;9.85;59.97
10476;BME280;26166;48.264;11.436;2023-12-29T09:12:45;96300.25;;;9.86;59.95
10476;BME280;26166;48.264;11.436;2023-12-29T09:15:46;96304.53;;;9.88;60.11
10476;BME280;26166;48.264;11.436;2023-12-29T09:18:46;96298.31;;;9.89;59.78
10476;BME280;26166;48.264;11.436;2023-12-29T09:21:46;96300.94;;;9.89;60.04
10476;BME280;26166;48.264;11.436;2023-12-29T09:24:46;96302.72;;;9.88;60.08
10476;BME280;26166;48.264;11.436;2023-12-29T09:27:46;96297.31;;;9.90;59.95
10476;BME280;26166;48.264;11.436;2023-12-29T09:30:49;96292.88;;;9.90;60.20
10476;BME280;26166;48.264;11.436;2023-12-29T09:33:50;96287.63;;;9.90;59.97
10476;BME280;26166;48.264;11.436;2023-12-29T09:36:50;96299.63;;;9.93;60.15
10476;BME280;26166;48.264;11.436;2023-12-29T09:39:50;96299.63;;;9.93;60.15
10476;BME280;26166;48.264;11.436;2023-12-29T09:42:51;96295.19;;;9.93;60.09
10476;BME280;26166;48.264;11.436;2023-12-29T09:45:52;96305.53;;;9.95;60.15
10476;BME280;26166;48.264;11.436;2023-12-29T09:48:52;96296.66;;;9.96;60.46
10476;BME280;26166;48.264;11.436;2023-12-29T09:51:54;96291.41;;;9.96;60.34
10476;BME280;26166;48.264;11.436;2023-12-29T09:54:56;96291.25;;;9.97;60.34
10476;BME280;26166;48.264;11.436;2023-12-29T09:57:58;96292.25;;;9.96;60.71
10476;BME280;26166;48.264;11.436;2023-12-29T10:01:00;96287.16;;;9.95;60.60
10476;BME280;26166;48.264;11.436;2023-12-29T10:04:01;96299.28;;;9.96;60.70
10476;BME280;26166;48.264;11.436;2023-12-29T10:07:02;96284.38;;;9.96;60.67
10476;BME280;26166;48.264;11.436;2023-12-29T10:10:04;96287.00;;;9.96;61.02
10476;BME280;26166;48.264;11.436;2023-12-29T10:13:05;96280.91;;;9.96;60.60
10476;BME280;26166;48.264;11.436;2023-12-29T10:16:18;96275.53;;;9.97;60.70
10476;BME280;26166;48.264;11.436;2023-12-29T10:19:37;96277.97;;;9.99;60.99
10476;BME280;26166;48.264;11.436;2023-12-29T10:22:43;96281.59;;;9.98;60.99
10476;BME280;26166;48.264;11.436;2023-12-29T10:25:48;96276.97;;;10.00;60.81
10476;BME280;26166;48.264;11.436;2023-12-29T10:28:49;96265.03;;;9.97;61.02
10476;BME280;26166;48.264;11.436;2023-12-29T10:31:50;96258.97;;;9.97;61.09
10476;BME280;26166;48.264;11.436;2023-12-29T10:34:50;96250.28;;;9.96;61.25
10476;BME280;26166;48.264;11.436;2023-12-29T10:37:50;96250.28;;;9.96;61.42
10476;BME280;26166;48.264;11.436;2023-12-29T10:40:50;96243.84;;;9.99;61.75
10476;BME280;26166;48.264;11.436;2023-12-29T10:43:50;96245.84;;;9.97;61.70
10476;BME280;26166;48.264;11.436;2023-12-29T10:46:52;96238.63;;;9.99;62.34
10476;BME280;26166;48.264;11.436;2023-12-29T10:49:52;96234.34;;;9.98;63.02
10476;BME280;26166;48.264;11.436;2023-12-29T10:53:11;96235.81;;;10.00;63.02
10476;BME280;26166;48.264;11.436;2023-12-29T10:56:18;96235.00;;;10.00;62.85
10476;BME280;26166;48.264;11.436;2023-12-29T10:59:20;96235.81;;;10.00;63.12
10476;BME280;26166;48.264;11.436;2023-12-29T11:02:20;96229.59;;;10.01;63.69
10476;BME280;26166;48.264;11.436;2023-12-29T11:05:21;96222.56;;;10.02;63.67
10476;BME280;26166;48.264;11.436;2023-12-29T11:08:24;96222.56;;;10.02;64.20
10476;BME280;26166;48.264;11.436;2023-12-29T11:11:24;96227.78;;;10.02;63.94
10476;BME280;26166;48.264;11.436;2023-12-29T11:14:26;96218.13;;;10.02;64.05
10476;BME280;26166;48.264;11.436;2023-12-29T11:17:26;96226.81;;;10.03;64.67
10476;BME280;26166;48.264;11.436;2023-12-29T11:20:26;96224.19;;;10.03;64.38
10476;BME280;26166;48.264;11.436;2023-12-29T11:23:27;96225.00;;;10.03;64.51
10476;BME280;26166;48.264;11.436;2023-12-29T11:26:27;96218.75;;;10.04;64.43
10476;BME280;26166;48.264;11.436;2023-12-29T11:29:28;96211.88;;;10.03;64.43
10476;BME280;26166;48.264;11.436;2023-12-29T11:33:03;96218.94;;;10.03;64.60
10476;BME280;26166;48.264;11.436;2023-12-29T11:42:13;96197.94;;;10.03;64.49
10476;BME280;26166;48.264;11.436;2023-12-29T11:45:30;96208.44;;;10.03;64.50
10476;BME280;26166;48.264;11.436;2023-12-29T11:48:53;96191.56;;;10.05;64.72
10476;BME280;26166;48.264;11.436;2023-12-29T11:51:54;96184.63;;;10.04;64.46
10476;BME280;26166;48.264;11.436;2023-12-29T11:54:59;96196.00;;;10.05;64.93
10476;BME280;26166;48.264;11.436;2023-12-29T11:58:25;96199.44;;;10.05;64.32
10476;BME280;26166;48.264;11.436;2023-12-29T12:01:34;96193.00;;;10.08;64.43
10476;BME280;26166;48.264;11.436;2023-12-29T12:04:37;96190.38;;;10.08;64.95
10476;BME280;26166;48.264;11.436;2023-12-29T12:10:40;96187.75;;;10.08;64.59
10476;BME280;26166;48.264;11.436;2023-12-29T12:13:47;96175.47;;;10.08;64.83
10476;BME280;26166;48.264;11.436;2023-12-29T12:16:48;96183.19;;;10.10;64.77
10476;BME280;26166;48.264;11.436;2023-12-29T12:19:55;96186.44;;;10.12;64.46
10476;BME280;26166;48.264;11.436;2023-12-29T12:22:57;96172.69;;;10.10;64.46
10476;BME280;26166;48.264;11.436;2023-12-29T12:25:57;96179.38;;;10.13;64.36
10476;BME280;26166;48.264;11.436;2023-12-29T12:28:59;96175.94;;;10.12;64.55
10476;BME280;26166;48.264;11.436;2023-12-29T12:32:06;96172.34;;;10.13;64.37
10476;BME280;26166;48.264;11.436;2023-12-29T12:35:13;96176.28;;;10.17;64.44
10476;BME280;26166;48.264;11.436;2023-12-29T12:38:14;96173.00;;;10.23;64.38
10476;BME280;26166;48.264;11.436;2023-12-29T12:41:14;96176.13;;;10.27;64.12
10476;BME280;26166;48.264;11.436;2023-12-29T12:44:15;96179.22;;;10.30;63.70
10476;BME280;26166;48.264;11.436;2023-12-29T12:47:18;96170.22;;;10.33;63.70
10476;BME280;26166;48.264;11.436;2023-12-29T12:50:18;96183.84;;;10.37;63.58
10476;BME280;26166;48.264;11.436;2023-12-29T12:53:19;96167.91;;;10.38;63.74
10476;BME280;26166;48.264;11.436;2023-12-29T12:56:22;96167.09;;;10.38;63.83
10476;BME280;26166;48.264;11.436;2023-12-29T12:59:22;96188.09;;;10.38;63.87
10476;BME280;26166;48.264;11.436;2023-12-29T13:02:23;96183.84;;;10.37;63.78
10476;BME280;26166;48.264;11.436;2023-12-29T13:05:24;96187.28;;;10.37;63.68
10476;BME280;26166;48.264;11.436;2023-12-29T13:08:24;96186.09;;;10.40;64.16
10476;BME280;26166;48.264;11.436;2023-12-29T13:11:25;96183.81;;;10.45;64.13
10476;BME280;26166;48.264;11.436;2023-12-29T13:14:25;96179.84;;;10.49;63.87
10476;BME280;26166;48.264;11.436;2023-12-29T13:17:25;96168.84;;;10.53;63.71
10476;BME280;26166;48.264;11.436;2023-12-29T13:20:26;96169.31;;;10.57;63.38
10476;BME280;26166;48.264;11.436;2023-12-29T13:23:26;96174.25;;;10.60;63.04
10476;BME280;26166;48.264;11.436;2023-12-29T13:26:27;96178.38;;;10.63;62.93
10476;BME280;26166;48.264;11.436;2023-12-29T13:29:30;96172.13;;;10.64;62.70
10476;BME280;26166;48.264;11.436;2023-12-29T13:32:31;96161.75;;;10.62;62.70
10476;BME280;26166;48.264;11.436;2023-12-29T13:35:35;96162.59;;;10.63;62.62
10476;BME280;26166;48.264;11.436;2023-12-29T13:38:39;96153.88;;;10.62;62.55
10476;BME280;26166;48.264;11.436;2023-12-29T13:41:44;96153.72;;;10.64;63.04
10476;BME280;26166;48.264;11.436;2023-12-29T13:44:44;96157.34;;;10.63;62.70
10476;BME280;26166;48.264;11.436;2023-12-29T13:47:46;96162.59;;;10.63;62.68
10476;BME280;26166;48.264;11.436;2023-12-29T13:50:46;96159.13;;;10.62;62.88
10476;BME280;26166;48.264;11.436;2023-12-29T13:53:47;96166.38;;;10.60;62.42
10476;BME280;26166;48.264;11.436;2023-12-29T13:56:51;96163.75;;;10.60;62.83
10476;BME280;26166;48.264;11.436;2023-12-29T13:59:53;96160.94;;;10.61;62.60
10476;BME280;26166;48.264;11.436;2023-12-29T14:05:56;96155.19;;;10.58;62.88
10476;BME280;26166;48.264;11.436;2023-12-29T14:08:56;96160.47;;;10.58;62.54
10476;BME280;26166;48.264;11.436;2023-12-29T14:11:57;96148.31;;;10.57;62.43
10476;BME280;26166;48.264;11.436;2023-12-29T14:15:02;96167.69;;;10.56;62.52
10476;BME280;26166;48.264;11.436;2023-12-29T14:18:13;96165.06;;;10.56;62.58
10476;BME280;26166;48.264;11.436;2023-12-29T14:24:25;96171.47;;;10.53;62.23
10476;BME280;26166;48.264;11.436;2023-12-29T14:27:25;96167.06;;;10.54;62.43
10476;BME280;26166;48.264;11.436;2023-12-29T14:30:25;96170.50;;;10.54;61.88
10476;BME280;26166;48.264;11.436;2023-12-29T14:33:25;96167.88;;;10.54;61.71
10476;BME280;26166;48.264;11.436;2023-12-29T14:36:26;96163.59;;;10.53;61.79
10476;BME280;26166;48.264;11.436;2023-12-29T14:39:26;96156.72;;;10.52;61.54
10476;BME280;26166;48.264;11.436;2023-12-29T14:42:26;96161.97;;;10.52;61.63
10476;BME280;26166;48.264;11.436;2023-12-29T14:45:27;96161.13;;;10.52;61.60
10476;BME280;26166;48.264;11.436;2023-12-29T14:48:30;96157.06;;;10.49;61.50
10476;BME280;26166;48.264;11.436;2023-12-29T14:51:30;96152.78;;;10.48;61.57
10476;BME280;26166;48.264;11.436;2023-12-29T14:54:30;96156.22;;;10.49;61.85
10476;BME280;26166;48.264;11.436;2023-12-29T14:57:31;96157.22;;;10.48;61.55
10476;BME280;26166;48.264;11.436;2023-12-29T15:00:32;96166.09;;;10.47;62.00
10476;BME280;26166;48.264;11.436;2023-12-29T15:03:32;96161.66;;;10.47;61.76
10476;BME280;26166;48.264;11.436;2023-12-29T15:06:32;96158.22;;;10.47;61.77
10476;BME280;26166;48.264;11.436;2023-12-29T15:09:40;96160.19;;;10.45;61.84
10476;BME280;26166;48.264;11.436;2023-12-29T15:12:40;96163.78;;;10.44;62.11
10476;BME280;26166;48.264;11.436;2023-12-29T15:15:40;96159.34;;;10.44;62.09
10476;BME280;26166;48.264;11.436;2023-12-29T15:18:41;96169.84;;;10.44;61.95
10476;BME280;26166;48.264;11.436;2023-12-29T15:21:44;96169.03;;;10.44;62.17
10476;BME280;26166;48.264;11.436;2023-12-29T15:24:44;96164.59;;;10.44;62.17
10476;BME280;26166;48.264;11.436;2023-12-29T15:27:47;96168.06;;;10.45;62.12
10476;BME280;26166;48.264;11.436;2023-12-29T15:30:47;96165.44;;;10.45;62.04
10476;BME280;26166;48.264;11.436;2023-12-29T15:33:48;96169.03;;;10.44;62.27
10476;BME280;26166;48.264;11.436;2023-12-29T15:36:49;96173.47;;;10.43;62.19
10476;BME280;26166;48.264;11.436;2023-12-29T15:39:49;96170.22;;;10.41;62.45
10476;BME280;26166;48.264;11.436;2023-12-29T15:42:49;96170.22;;;10.41;62.00
10476;BME280;26166;48.264;11.436;2023-12-29T15:45:49;96175.47;;;10.41;62.32
10476;BME280;26166;48.264;11.436;2023-12-29T15:48:50;96175.47;;;10.41;62.26
10476;BME280;26166;48.264;11.436;2023-12-29T15:51:50;96164.97;;;10.41;61.95
10476;BME280;26166;48.264;11.436;2023-12-29T15:54:53;96161.50;;;10.41;62.19
10476;BME280;26166;48.264;11.436;2023-12-29T15:57:53;96165.91;;;10.40;62.37
10476;BME280;26166;48.264;11.436;2023-12-29T16:00:54;96161.66;;;10.39;62.20
10476;BME280;26166;48.264;11.436;2023-12-29T16:03:55;96163.97;;;10.34;62.52
10476;BME280;26166;48.264;11.436;2023-12-29T16:06:55;96166.28;;;10.29;62.42
10476;BME280;26166;48.264;11.436;2023-12-29T16:09:55;96157.75;;;10.27;62.75
10476;BME280;26166;48.264;11.436;2023-12-29T16:12:56;96164.16;;;10.24;62.64
10476;BME280;26166;48.264;11.436;2023-12-29T16:15:56;96174.66;;;10.24;62.51